createdAt,value
2019-02-16T00:00:50.241Z,5.20
2019-02-16T00:03:18.915Z,5.67
2019-02-16T00:05:47.614Z,4.67
2019-02-16T00:08:16.345Z,5.33
2019-02-16T00:10:45.465Z,5.00
2019-02-16T00:13:14.625Z,6.13
2019-02-16T00:15:43.333Z,4.47
2019-02-16T00:18:12.012Z,5.53
2019-02-16T00:20:40.754Z,5.83
2019-02-16T00:23:09.730Z,5.50
2019-02-16T00:25:38.696Z,5.03
2019-02-16T00:28:07.594Z,5.83
2019-02-16T00:30:36.304Z,6.63
2019-02-16T00:33:05.058Z,5.63
2019-02-16T00:35:33.876Z,4.80
2019-02-16T00:38:02.587Z,4.63
2019-02-16T00:40:31.655Z,5.05
2019-02-16T00:43:00.488Z,5.50
2019-02-16T00:45:29.338Z,5.03
2019-02-16T00:47:57.998Z,5.90
2019-02-16T00:50:26.671Z,4.90
2019-02-16T00:52:55.394Z,4.93
2019-02-16T00:55:24.049Z,5.30
2019-02-16T00:57:52.930Z,5.77
2019-02-16T01:00:21.618Z,5.33
2019-02-16T01:02:51.278Z,5.93
2019-02-16T01:05:20.163Z,5.13
2019-02-16T01:07:49.182Z,5.30
2019-02-16T01:10:18.356Z,5.13
2019-02-16T01:12:47.028Z,6.73
2019-02-16T01:15:15.817Z,5.60
2019-02-16T01:17:44.753Z,5.40
2019-02-16T01:20:13.426Z,5.43
2019-02-16T01:22:42.131Z,5.37
2019-02-16T01:25:10.911Z,5.27
2019-02-16T01:27:39.786Z,5.40
2019-02-16T01:30:10.798Z,5.63
2019-02-16T01:32:39.716Z,5.40
2019-02-16T01:35:08.906Z,5.87
2019-02-16T01:37:37.790Z,5.27
2019-02-16T01:40:09.090Z,5.80
2019-02-16T01:42:37.755Z,5.37
2019-02-16T01:45:07.658Z,5.40
2019-02-16T01:47:36.345Z,6.07
2019-02-16T01:50:05.570Z,5.30
2019-02-16T01:52:34.258Z,4.43
2019-02-16T01:55:02.925Z,5.33
2019-02-16T01:57:31.902Z,5.70
2019-02-16T02:00:00.589Z,5.10
2019-02-16T02:02:29.487Z,4.83
2019-02-16T02:04:59.170Z,5.30
2019-02-16T02:07:28.316Z,5.60
2019-02-16T02:09:56.967Z,5.23
2019-02-16T02:12:28.994Z,5.87
2019-02-16T02:14:57.946Z,5.20
2019-02-16T02:17:26.696Z,5.17
2019-02-16T02:19:55.693Z,5.90
2019-02-16T02:22:26.799Z,5.93
2019-02-16T02:24:55.731Z,5.77
2019-02-16T02:27:24.817Z,5.93
2019-02-16T02:29:53.744Z,5.30
2019-02-16T02:32:22.415Z,6.73
2019-02-16T02:34:51.314Z,6.47
2019-02-16T02:37:20.110Z,6.17
2019-02-16T02:39:48.779Z,6.40
2019-02-16T02:42:17.435Z,5.90
2019-02-16T02:44:46.134Z,5.87
2019-02-16T02:47:15.091Z,6.80
2019-02-16T02:49:43.834Z,5.73
2019-02-16T02:52:12.628Z,6.78
2019-02-16T02:54:41.287Z,6.83
2019-02-16T02:57:09.946Z,6.87
2019-02-16T02:59:39.009Z,6.73
2019-02-16T03:02:07.788Z,6.60
2019-02-16T03:04:36.442Z,6.87
2019-02-16T03:07:06.155Z,6.93
2019-02-16T03:09:35.754Z,6.87
2019-02-16T03:12:04.669Z,6.80
2019-02-16T03:14:33.598Z,6.33
2019-02-16T03:17:02.343Z,7.93
2019-02-16T03:19:31.157Z,6.80
2019-02-16T03:22:02.674Z,6.80
2019-02-16T03:24:30.550Z,7.70
2019-02-16T03:27:55.735Z,6.97
2019-02-16T03:30:49.320Z,6.97
2019-02-16T03:33:37.555Z,7.00
2019-02-16T03:36:22.887Z,6.73
2019-02-16T03:39:11.264Z,6.17
2019-02-16T03:41:40.624Z,6.07
2019-02-16T03:44:09.398Z,6.37
2019-02-16T03:46:38.363Z,5.97
2019-02-16T03:49:07.067Z,6.90
2019-02-16T03:51:36.263Z,7.27
2019-02-16T03:54:05.700Z,7.40
2019-02-16T03:56:34.598Z,5.80
2019-02-16T03:59:03.342Z,6.20
2019-02-16T04:01:32.026Z,6.00
2019-02-16T04:04:00.767Z,5.90
2019-02-16T04:06:29.910Z,5.53
2019-02-16T04:08:58.890Z,6.27
2019-02-16T04:11:27.886Z,5.93
2019-02-16T04:13:56.568Z,6.27
2019-02-16T04:16:25.320Z,5.53
2019-02-16T04:18:54.320Z,5.63
2019-02-16T04:21:23.079Z,5.57
2019-02-16T04:23:51.834Z,5.87
2019-02-16T04:26:20.875Z,6.07
2019-02-16T04:28:49.802Z,6.07
2019-02-16T04:31:18.730Z,6.23
2019-02-16T04:33:47.651Z,6.63
2019-02-16T04:36:16.930Z,5.40
2019-02-16T04:38:45.737Z,6.07
2019-02-16T04:41:14.849Z,6.43
2019-02-16T04:43:43.748Z,5.47
2019-02-16T04:46:12.820Z,6.33
2019-02-16T04:48:41.510Z,6.13
2019-02-16T04:51:10.471Z,5.43
2019-02-16T04:53:39.194Z,5.87
2019-02-16T04:56:07.872Z,5.87
2019-02-16T04:58:36.611Z,4.73
2019-02-16T05:01:05.354Z,5.70
2019-02-16T05:03:34.258Z,5.57
2019-02-16T05:06:02.985Z,5.47
2019-02-16T05:08:32.004Z,5.67
2019-02-16T05:11:01.710Z,5.73
2019-02-16T05:13:30.619Z,6.23
2019-02-16T05:15:59.309Z,5.30
2019-02-16T05:18:28.015Z,5.33
2019-02-16T05:20:56.669Z,6.43
2019-02-16T05:23:25.597Z,6.10
2019-02-16T05:25:54.679Z,5.90
2019-02-16T05:28:23.630Z,7.10
2019-02-16T05:30:52.337Z,6.20
2019-02-16T05:33:22.012Z,5.83
2019-02-16T05:35:50.977Z,5.37
2019-02-16T05:38:20.236Z,5.93
2019-02-16T05:40:49.819Z,6.50
2019-02-16T05:43:18.875Z,5.83
2019-02-16T05:45:48.117Z,6.33
2019-02-16T05:48:16.850Z,6.07
2019-02-16T05:50:45.592Z,6.43
2019-02-16T05:53:14.630Z,6.20
2019-02-16T05:55:43.303Z,6.00
2019-02-16T05:58:12.233Z,6.33
2019-02-16T06:00:41.006Z,6.47
2019-02-16T06:03:09.676Z,6.33
2019-02-16T06:05:40.735Z,5.93
2019-02-16T06:08:08.876Z,5.80
2019-02-16T06:10:37.849Z,5.70
2019-02-16T06:13:07.422Z,5.93
2019-02-16T06:15:36.356Z,6.77
2019-02-16T06:18:05.019Z,5.73
2019-02-16T06:20:33.766Z,6.23
2019-02-16T06:23:04.625Z,5.50
2019-02-16T06:25:33.055Z,5.80
2019-02-16T06:28:01.734Z,6.30
2019-02-16T06:30:30.428Z,6.13
2019-02-16T06:32:59.611Z,5.73
2019-02-16T06:35:42.115Z,6.70
2019-02-16T06:38:10.798Z,6.60
2019-02-16T06:40:41.082Z,5.77
2019-02-16T06:43:09.966Z,5.43
2019-02-16T06:45:38.678Z,5.50
2019-02-16T06:48:07.598Z,5.63
2019-02-16T06:50:37.210Z,5.50
2019-02-16T06:53:13.003Z,5.87
2019-02-16T06:55:42.990Z,5.50
2019-02-16T06:58:12.171Z,4.40
2019-02-16T07:00:41.189Z,5.23
2019-02-16T07:03:10.523Z,4.67
2019-02-16T07:05:39.226Z,5.37
2019-02-16T07:08:07.889Z,4.57
2019-02-16T07:10:36.619Z,5.67
2019-02-16T07:13:05.313Z,5.17
2019-02-16T07:15:34.302Z,5.63
2019-02-16T07:18:09.777Z,5.62
2019-02-16T07:20:38.538Z,5.50
2019-02-16T07:23:07.221Z,5.83
2019-02-16T07:25:35.932Z,5.90
2019-02-16T07:28:04.798Z,5.45
2019-02-16T07:30:33.470Z,5.22
2019-02-16T07:33:02.212Z,4.28
2019-02-16T07:35:30.930Z,5.03
2019-02-16T07:38:00.099Z,5.50
2019-02-16T07:40:29.206Z,4.22
2019-02-16T07:42:58.658Z,5.10
2019-02-16T07:45:51.357Z,4.90
2019-02-16T07:48:25.015Z,5.17
2019-02-16T07:50:58.050Z,4.70
2019-02-16T07:53:55.068Z,4.30
2019-02-16T07:56:28.300Z,5.13
2019-02-16T07:59:16.108Z,4.78
2019-02-16T08:01:56.704Z,4.75
2019-02-16T08:04:53.533Z,4.65
2019-02-16T08:07:36.706Z,5.33
2019-02-16T08:10:28.074Z,4.75
2019-02-16T08:13:16.715Z,5.40
2019-02-16T08:16:03.203Z,4.47
2019-02-16T08:19:06.211Z,4.03
2019-02-16T08:21:52.562Z,4.45
2019-02-16T08:24:35.407Z,3.65
2019-02-16T08:27:37.388Z,3.92
2019-02-16T08:30:18.919Z,4.67
2019-02-16T08:33:09.707Z,3.90
2019-02-16T08:36:03.927Z,3.60
2019-02-16T08:38:47.996Z,3.90
2019-02-16T08:41:34.646Z,4.10
2019-02-16T08:44:34.481Z,3.72
2019-02-16T08:47:17.406Z,3.67
2019-02-16T08:50:08.829Z,4.17
2019-02-16T08:52:44.588Z,3.83
2019-02-16T08:55:41.281Z,3.40
2019-02-16T08:58:35.691Z,3.52
2019-02-16T09:01:23.594Z,3.60
2019-02-16T09:04:03.032Z,4.40
2019-02-16T09:06:39.002Z,3.52
2019-02-16T09:09:27.060Z,3.45
2019-02-16T09:12:06.053Z,3.60
2019-02-16T09:14:46.418Z,3.65
2019-02-16T09:17:33.032Z,3.83
2019-02-16T09:20:21.749Z,4.20
2019-02-16T09:23:17.675Z,3.20
2019-02-16T09:26:04.342Z,3.60
2019-02-16T09:28:44.231Z,3.23
2019-02-16T09:31:23.450Z,3.10
2019-02-16T09:34:16.403Z,3.42
2019-02-16T09:36:59.930Z,2.75
2019-02-16T09:39:44.403Z,3.60
2019-02-16T09:42:37.054Z,3.70
2019-02-16T09:45:20.542Z,3.12
2019-02-16T09:47:59.968Z,3.00
2019-02-16T09:50:47.995Z,3.22
2019-02-16T09:53:29.091Z,3.12
2019-02-16T09:56:15.554Z,3.20
2019-02-16T09:59:06.490Z,3.67
2019-02-16T10:01:47.963Z,3.90
2019-02-16T10:04:21.693Z,3.58
2019-02-16T10:07:03.634Z,2.98
2019-02-16T10:09:51.454Z,3.17
2019-02-16T10:12:38.279Z,2.70
2019-02-16T10:15:33.351Z,2.53
2019-02-16T10:18:20.242Z,2.92
2019-02-16T10:20:57.019Z,3.12
2019-02-16T10:23:37.995Z,2.70
2019-02-16T10:26:24.179Z,2.87
2019-02-16T10:29:09.027Z,3.12
2019-02-16T10:31:43.462Z,3.17
2019-02-16T10:34:37.583Z,3.27
2019-02-16T10:37:25.389Z,2.80
2019-02-16T10:40:15.955Z,2.80
2019-02-16T10:43:14.154Z,2.70
2019-02-16T10:46:09.734Z,2.77
2019-02-16T10:48:47.385Z,3.22
2019-02-16T10:51:35.545Z,2.98
2019-02-16T10:54:29.733Z,3.35
2019-02-16T10:57:06.175Z,2.77
2019-02-16T10:59:56.567Z,3.10
2019-02-16T11:02:42.815Z,2.65
2019-02-16T11:05:21.076Z,2.90
2019-02-16T11:08:03.788Z,2.90
2019-02-16T11:11:01.038Z,3.02
2019-02-16T11:13:45.151Z,2.90
2019-02-16T11:16:40.438Z,3.27
2019-02-16T11:19:25.588Z,2.97
2019-02-16T11:22:13.971Z,2.90
2019-02-16T11:25:01.795Z,3.33
2019-02-16T11:27:59.730Z,3.02
2019-02-16T11:30:44.738Z,2.30
2019-02-16T11:33:31.147Z,2.83
2019-02-16T11:36:18.025Z,2.40
2019-02-16T11:38:52.142Z,3.30
2019-02-16T11:41:34.243Z,2.47
2019-02-16T11:44:21.133Z,2.42
2019-02-16T11:46:56.891Z,2.80
2019-02-16T11:49:31.712Z,2.83
2019-02-16T11:52:37.736Z,2.90
2019-02-16T11:55:26.106Z,2.60
2019-02-16T11:58:06.966Z,2.50
2019-02-16T12:01:03.968Z,2.47
2019-02-16T12:03:51.497Z,2.60
2019-02-16T12:06:25.404Z,2.43
2019-02-16T12:09:00.782Z,2.12
2019-02-16T12:11:47.698Z,2.40
2019-02-16T12:14:30.618Z,2.15
2019-02-16T12:17:16.185Z,2.22
2019-02-16T12:20:02.435Z,2.50
2019-02-16T12:22:38.583Z,2.22
2019-02-16T12:25:25.381Z,1.70
2019-02-16T12:28:05.947Z,2.47
2019-02-16T12:31:08.936Z,2.65
2019-02-16T12:34:03.040Z,2.27
2019-02-16T12:36:49.575Z,1.85
2019-02-16T12:39:25.394Z,1.67
2019-02-16T12:42:12.210Z,2.15
2019-02-16T12:45:01.792Z,2.15
2019-02-16T12:47:48.295Z,2.30
2019-02-16T12:50:24.336Z,2.08
2019-02-16T12:53:30.490Z,2.20
2019-02-16T12:56:07.084Z,2.22
2019-02-16T12:58:46.912Z,2.70
2019-02-16T13:01:33.618Z,2.17
2019-02-16T13:04:14.350Z,1.95
2019-02-16T13:06:57.388Z,2.05
2019-02-16T13:09:44.313Z,2.20
2019-02-16T13:12:25.189Z,1.50
2019-02-16T13:15:16.642Z,1.67
2019-02-16T13:17:56.999Z,1.57
2019-02-16T13:20:54.024Z,1.60
2019-02-16T13:23:30.336Z,2.27
2019-02-16T13:26:05.506Z,1.47
2019-02-16T13:28:59.422Z,1.37
2019-02-16T13:31:34.171Z,1.52
2019-02-16T13:34:25.405Z,1.62
2019-02-16T13:37:10.707Z,1.57
2019-02-16T13:39:49.507Z,1.87
2019-02-16T13:42:23.462Z,1.30
2019-02-16T13:45:08.173Z,1.40
2019-02-16T13:47:50.402Z,1.32
2019-02-16T13:50:24.306Z,1.17
2019-02-16T13:52:59.413Z,1.95
2019-02-16T13:55:36.272Z,2.05
2019-02-16T13:58:14.634Z,2.05
2019-02-16T14:00:51.963Z,2.00
2019-02-16T14:03:26.973Z,2.40
2019-02-16T14:06:01.864Z,1.50
2019-02-16T14:08:42.994Z,1.60
2019-02-16T14:11:24.158Z,1.22
2019-02-16T14:14:10.577Z,1.50
2019-02-16T14:16:57.086Z,1.60
2019-02-16T14:19:26.049Z,1.45
2019-02-16T14:21:55.275Z,1.60
2019-02-16T14:24:42.292Z,1.57
2019-02-16T14:27:11.346Z,1.20
2019-02-16T14:29:40.288Z,1.95
2019-02-16T14:32:13.743Z,1.62
2019-02-16T14:34:42.723Z,1.60
2019-02-16T14:37:26.322Z,1.67
2019-02-16T14:39:55.047Z,1.72
2019-02-16T14:42:23.767Z,2.22
2019-02-16T14:44:52.731Z,1.73
2019-02-16T14:47:22.819Z,1.87
2019-02-16T14:49:51.483Z,2.10
2019-02-16T14:52:20.595Z,2.00
2019-02-16T14:54:49.772Z,1.60
2019-02-16T14:57:18.807Z,1.65
2019-02-16T14:59:47.787Z,1.87
2019-02-16T15:02:18.284Z,1.82
2019-02-16T15:04:46.933Z,1.93
2019-02-16T15:07:15.939Z,1.57
2019-02-16T15:09:44.675Z,1.90
2019-02-16T15:12:14.311Z,1.82
2019-02-16T15:14:43.346Z,1.40
2019-02-16T15:17:12.476Z,1.70
2019-02-16T15:19:41.419Z,1.37
2019-02-16T15:22:13.066Z,1.37
2019-02-16T15:24:41.771Z,1.90
2019-02-16T15:27:12.034Z,1.70
2019-02-16T15:29:41.287Z,1.75
2019-02-16T15:32:14.159Z,2.22
2019-02-16T15:34:43.086Z,1.35
2019-02-16T15:37:12.558Z,1.65
2019-02-16T15:39:41.237Z,1.87
2019-02-16T15:42:09.898Z,1.80
2019-02-16T15:44:39.329Z,1.72
2019-02-16T15:47:08.298Z,2.12
2019-02-16T15:49:37.046Z,2.20
2019-02-16T15:52:05.730Z,2.40
2019-02-16T15:54:34.417Z,1.72
2019-02-16T15:57:03.085Z,2.17
2019-02-16T15:59:35.238Z,1.95
2019-02-16T16:02:02.681Z,2.17
2019-02-16T16:04:31.379Z,2.08
2019-02-16T16:07:00.696Z,2.00
2019-02-16T16:09:47.302Z,2.25
2019-02-16T16:12:25.459Z,2.37
2019-02-16T16:15:23.653Z,2.65
2019-02-16T16:18:03.530Z,4.28
2019-02-16T16:20:50.782Z,2.37
2019-02-16T16:23:37.214Z,2.40
2019-02-16T16:26:19.393Z,2.27
2019-02-16T16:29:00.811Z,2.57
2019-02-16T16:31:40.674Z,2.50
2019-02-16T16:34:33.395Z,2.30
2019-02-16T16:37:18.163Z,2.70
2019-02-16T16:40:12.728Z,2.65
2019-02-16T16:42:54.930Z,3.08
2019-02-16T16:45:40.478Z,2.90
2019-02-16T16:48:22.414Z,3.90
2019-02-16T16:51:00.598Z,3.58
2019-02-16T16:53:36.064Z,3.60
2019-02-16T16:56:28.419Z,3.80
2019-02-16T16:59:02.383Z,4.78
2019-02-16T17:01:42.979Z,3.13
2019-02-16T17:04:37.009Z,3.47
2019-02-16T17:07:24.910Z,4.27
2019-02-16T17:10:10.610Z,3.50
2019-02-16T17:12:47.841Z,3.87
2019-02-16T17:15:41.652Z,3.17
2019-02-16T17:18:28.155Z,3.05
2019-02-16T17:21:17.175Z,3.27
2019-02-16T17:23:55.773Z,2.52
2019-02-16T17:26:42.009Z,2.73
2019-02-16T17:29:19.786Z,3.20
2019-02-16T17:32:06.041Z,3.10
2019-02-16T17:34:52.869Z,2.83
2019-02-16T17:37:30.592Z,2.63
2019-02-16T17:40:08.027Z,2.80
2019-02-16T17:42:58.920Z,3.37
2019-02-16T17:45:49.486Z,2.73
2019-02-16T17:48:36.040Z,2.83
2019-02-16T17:51:17.290Z,2.93
2019-02-16T17:54:17.363Z,2.40
2019-02-16T17:57:11.672Z,4.07
2019-02-16T17:59:45.566Z,3.83
2019-02-16T18:02:24.954Z,3.13
2019-02-16T18:05:21.903Z,3.63
2019-02-16T18:08:01.591Z,3.80
2019-02-16T18:10:51.811Z,3.80
2019-02-16T18:13:39.617Z,3.40
2019-02-16T18:16:15.567Z,3.60
2019-02-16T18:18:56.474Z,3.53
2019-02-16T18:21:46.436Z,3.30
2019-02-16T18:24:37.290Z,3.73
2019-02-16T18:27:13.521Z,3.93
2019-02-16T18:30:04.736Z,3.80
2019-02-16T18:32:51.073Z,4.13
2019-02-16T18:35:48.199Z,3.93
2019-02-16T18:38:34.768Z,6.53
2019-02-16T18:41:22.076Z,4.60
2019-02-16T18:44:08.828Z,4.33
2019-02-16T18:46:44.616Z,4.60
2019-02-16T18:49:31.068Z,4.83
2019-02-16T18:52:09.874Z,5.00
2019-02-16T18:54:56.793Z,4.93
2019-02-16T18:57:35.538Z,4.90
2019-02-16T19:00:10.955Z,4.83
2019-02-16T19:02:56.357Z,4.60
2019-02-16T19:05:37.593Z,5.00
2019-02-16T19:08:20.590Z,4.87
2019-02-16T19:11:14.891Z,4.83
2019-02-16T19:13:57.530Z,5.50
2019-02-16T19:16:45.789Z,6.37
2019-02-16T19:19:25.708Z,5.63
2019-02-16T19:22:12.242Z,8.03
2019-02-16T19:24:47.667Z,7.50
2019-02-16T19:27:47.462Z,6.60
2019-02-16T19:30:33.055Z,6.23
2019-02-16T19:33:11.212Z,6.95
2019-02-16T19:36:00.171Z,7.20
2019-02-16T19:38:54.222Z,7.00
2019-02-16T19:41:33.796Z,6.13
2019-02-16T19:44:14.472Z,6.70
2019-02-16T19:46:51.185Z,6.10
2019-02-16T19:49:56.994Z,5.83
2019-02-16T19:52:48.026Z,5.63
2019-02-16T19:55:30.345Z,5.67
2019-02-16T19:58:16.791Z,5.33
2019-02-16T20:00:58.973Z,6.00
2019-02-16T20:03:49.378Z,5.63
2019-02-16T20:06:23.542Z,5.37
2019-02-16T20:08:57.514Z,4.90
2019-02-16T20:11:48.573Z,4.77
2019-02-16T20:14:38.019Z,5.73
2019-02-16T20:17:24.209Z,6.07
2019-02-16T20:20:10.823Z,5.57
2019-02-16T20:23:08.018Z,5.67
2019-02-16T20:25:51.523Z,6.00
2019-02-16T20:28:28.095Z,5.90
2019-02-16T20:31:03.386Z,5.50
2019-02-16T20:33:50.080Z,5.87
2019-02-16T20:36:41.914Z,5.63
2019-02-16T20:39:24.515Z,6.00
2019-02-16T20:42:12.744Z,6.63
2019-02-16T20:45:00.561Z,5.87
2019-02-16T20:47:50.647Z,5.87
2019-02-16T20:50:50.602Z,5.45
2019-02-16T20:53:28.710Z,5.37
2019-02-16T20:56:16.402Z,5.53
2019-02-16T20:59:16.887Z,5.30
2019-02-16T21:02:05.128Z,4.97
2019-02-16T21:04:54.745Z,5.37
2019-02-16T21:07:42.171Z,6.37
2019-02-16T21:10:20.344Z,6.00
2019-02-16T21:12:54.637Z,4.95
2019-02-16T21:15:31.422Z,5.23
2019-02-16T21:18:15.522Z,4.87
2019-02-16T21:21:01.225Z,5.00
2019-02-16T21:23:38.482Z,5.90
2019-02-16T21:26:24.728Z,5.70
2019-02-16T21:29:12.829Z,5.43
2019-02-16T21:31:55.818Z,4.90
2019-02-16T21:34:59.435Z,5.93
2019-02-16T21:37:36.155Z,6.37
2019-02-16T21:40:14.587Z,6.17
2019-02-16T21:42:54.682Z,6.00
2019-02-16T21:45:35.819Z,5.90
2019-02-16T21:48:31.537Z,6.77
2019-02-16T21:51:18.393Z,6.33
2019-02-16T21:53:55.503Z,8.10
2019-02-16T21:56:42.091Z,7.13
2019-02-16T21:59:35.308Z,7.70
2019-02-16T22:02:13.774Z,7.37
2019-02-16T22:05:21.409Z,7.73
2019-02-16T22:08:07.706Z,7.33
2019-02-16T22:10:44.015Z,8.17
2019-02-16T22:13:12.675Z,6.87
2019-02-16T22:15:41.342Z,7.07
2019-02-16T22:18:10.037Z,7.23
2019-02-16T22:20:38.723Z,5.90
2019-02-16T22:23:08.510Z,7.20
2019-02-16T22:25:37.263Z,6.60
2019-02-16T22:28:06.164Z,7.57
2019-02-16T22:30:35.429Z,7.33
2019-02-16T22:33:04.580Z,7.27
2019-02-16T22:35:34.118Z,7.40
2019-02-16T22:38:02.866Z,6.47
2019-02-16T22:40:31.791Z,8.20
2019-02-16T22:43:00.960Z,6.83
2019-02-16T22:45:29.683Z,7.83
2019-02-16T22:47:58.440Z,6.73
2019-02-16T22:50:27.185Z,7.43
2019-02-16T22:52:56.074Z,8.13
2019-02-16T22:55:24.750Z,8.10
2019-02-16T22:57:53.473Z,7.03
2019-02-16T23:00:40.175Z,7.97
2019-02-16T23:03:08.931Z,7.77
2019-02-16T23:05:38.918Z,7.33
2019-02-16T23:08:08.754Z,7.60
2019-02-16T23:10:37.702Z,7.87
2019-02-16T23:13:07.359Z,7.27
2019-02-16T23:15:36.135Z,8.10
2019-02-16T23:18:05.315Z,7.30
2019-02-16T23:20:34.328Z,7.73
2019-02-16T23:23:04.910Z,8.10
2019-02-16T23:25:33.650Z,7.37
2019-02-16T23:28:02.347Z,7.63
2019-02-16T23:30:31.337Z,8.03
2019-02-16T23:33:00.363Z,7.67
2019-02-16T23:35:29.065Z,7.70
2019-02-16T23:37:58.082Z,7.77
2019-02-16T23:40:27.270Z,7.93
2019-02-16T23:42:56.207Z,8.77
2019-02-16T23:45:24.958Z,8.27
2019-02-16T23:47:53.692Z,9.07
2019-02-16T23:50:22.379Z,7.10
2019-02-16T23:52:51.378Z,8.47
2019-02-16T23:55:20.339Z,8.20
2019-02-16T23:57:49.022Z,7.80
